Time;durP1;ratioP1;P1;durP2;ratioP2;P2;SDS_P1;SDS_P2;PMS_P1;PMS_P2;Temp;Humidity;BMP_temperature;BMP_pressure;BME280_temperature;BME280_humidity;BME280_pressure;Samples;Min_cycle;Max_cycle;Signal;HPM_P1;HPM_P2
2022/06/26 00:00:35;;;;;;;2.69;1.70;;;;;;;19.89;69.05;100678.63;463699;114;923089;-76
2022/06/26 00:01:39;;;;;;;4.25;2.28;;;;;;;19.89;69.12;100680.55;463625;114;922549;-74
2022/06/26 00:02:42;;;;;;;2.47;1.69;;;;;;;19.89;69.06;100680.55;463632;114;922687;-76
2022/06/26 00:03:46;;;;;;;1.71;1.61;;;;;;;19.89;69.03;100683.32;463592;114;930410;-75
2022/06/26 00:04:49;;;;;;;2.58;1.81;;;;;;;19.88;68.97;100679.72;463671;114;930302;-75
2022/06/26 00:05:53;;;;;;;2.76;1.83;;;;;;;19.90;68.95;100684.98;463687;114;922663;-76
2022/06/26 00:06:59;;;;;;;2.91;1.88;;;;;;;19.89;68.74;100684.16;461217;114;922545;-76
2022/06/26 00:08:02;;;;;;;4.97;2.05;;;;;;;19.90;68.64;100687.76;455486;116;922566;-75
2022/06/26 00:09:05;;;;;;;4.81;1.86;;;;;;;19.90;68.66;100690.52;455575;116;922539;-75
2022/06/26 00:10:09;;;;;;;2.89;2.19;;;;;;;19.90;68.64;100696.06;455638;116;922511;-77
2022/06/26 00:11:13;;;;;;;3.19;1.90;;;;;;;19.89;68.70;100700.76;455626;116;923148;-76
2022/06/26 00:12:16;;;;;;;2.64;1.64;;;;;;;19.89;68.55;100706.30;455748;116;922603;-75
2022/06/26 00:13:19;;;;;;;2.41;1.82;;;;;;;19.89;68.47;100705.45;455600;116;922520;-74
2022/06/26 00:14:23;;;;;;;2.43;1.76;;;;;;;19.87;68.53;100705.72;455623;116;922594;-75
2022/06/26 00:15:26;;;;;;;3.05;1.95;;;;;;;19.88;68.67;100712.09;455630;116;923015;-75
2022/06/26 00:16:30;;;;;;;2.61;1.79;;;;;;;19.87;68.61;100713.19;455582;116;922955;-75
2022/06/26 00:17:33;;;;;;;3.48;1.74;;;;;;;19.88;68.73;100720.39;455555;116;925123;-75
2022/06/26 00:18:37;;;;;;;1.94;1.78;;;;;;;19.88;68.80;100712.09;455510;116;930410;-75
2022/06/26 00:19:41;;;;;;;2.23;1.58;;;;;;;19.88;68.97;100712.92;455545;116;922537;-74
2022/06/26 00:20:44;;;;;;;2.59;1.94;;;;;;;19.89;68.99;100708.23;455530;116;930402;-75
2022/06/26 00:21:47;;;;;;;1.75;1.61;;;;;;;19.88;68.73;100709.33;455726;116;922559;-74
2022/06/26 00:22:51;;;;;;;2.71;2.07;;;;;;;19.87;68.72;100702.13;455606;116;922579;-75
2022/06/26 00:23:54;;;;;;;2.08;1.89;;;;;;;19.86;68.69;100717.06;455586;116;922982;-76
2022/06/26 00:24:58;;;;;;;3.42;2.02;;;;;;;19.84;68.82;100708.22;455654;116;922476;-75
2022/06/26 00:26:02;;;;;;;2.79;1.89;;;;;;;19.84;68.93;100708.22;455643;116;922921;-75
2022/06/26 00:27:06;;;;;;;2.45;1.86;;;;;;;19.84;68.96;100709.05;455562;116;922562;-75
2022/06/26 00:28:10;;;;;;;4.38;1.89;;;;;;;19.84;68.94;100711.81;455491;116;922854;-75
2022/06/26 00:29:13;;;;;;;3.04;1.96;;;;;;;19.83;68.93;100703.78;455605;116;922752;-76
2022/06/26 00:30:18;;;;;;;4.99;2.76;;;;;;;19.81;68.89;100700.44;461887;114;930610;-75
2022/06/26 00:31:22;;;;;;;2.48;1.79;;;;;;;19.79;68.87;100703.48;463071;114;923007;-76
2022/06/26 00:32:25;;;;;;;5.47;1.99;;;;;;;19.78;68.91;100709.30;463062;114;922661;-76
2022/06/26 00:33:30;;;;;;;5.09;1.95;;;;;;;19.77;69.13;100714.00;453798;116;930475;-75
2022/06/26 00:34:34;;;;;;;4.70;2.27;;;;;;;19.75;69.23;100705.13;454331;114;922769;-75
2022/06/26 00:35:37;;;;;;;2.69;2.04;;;;;;;19.75;69.37;100707.90;463150;114;922581;-77
2022/06/26 00:36:40;;;;;;;2.63;1.76;;;;;;;19.74;69.47;100709.00;463095;114;922621;-75
2022/06/26 00:37:44;;;;;;;2.87;1.96;;;;;;;19.74;69.55;100709.00;463110;114;922650;-76
2022/06/26 00:38:47;;;;;;;4.14;1.77;;;;;;;19.73;69.65;100706.52;463092;114;922574;-75
2022/06/26 00:39:51;;;;;;;3.00;1.80;;;;;;;19.73;69.72;100707.36;463047;114;923054;-76
2022/06/26 00:40:54;;;;;;;2.84;1.89;;;;;;;19.73;69.69;100706.52;463042;114;922763;-75
2022/06/26 00:41:57;;;;;;;2.78;1.65;;;;;;;19.72;69.80;100704.86;463068;114;922605;-76
2022/06/26 00:43:01;;;;;;;2.76;1.97;;;;;;;19.70;69.89;100702.36;454118;116;922653;-74
2022/06/26 00:44:16;;;;;;;1.56;1.35;;;;;;;19.70;69.86;100707.89;454428;114;922561;-75
2022/06/26 00:45:19;;;;;;;4.79;1.66;;;;;;;19.69;69.90;100706.22;462957;114;922921;-74
2022/06/26 00:46:26;;;;;;;2.13;1.79;;;;;;;19.69;69.90;100699.85;463064;114;923153;-74
2022/06/26 00:47:31;;;;;;;2.77;1.85;;;;;;;19.68;69.89;100699.05;462933;114;922597;-75
2022/06/26 00:48:35;;;;;;;6.14;1.87;;;;;;;19.67;69.77;100693.78;462915;114;923085;-76
2022/06/26 00:49:38;;;;;;;1.99;1.66;;;;;;;19.64;69.70;100695.14;463046;114;922587;-74
2022/06/26 00:50:41;;;;;;;1.86;1.44;;;;;;;19.62;69.53;100696.53;463097;114;922563;-75
2022/06/26 00:51:47;;;;;;;6.76;1.62;;;;;;;19.58;69.44;100691.52;463176;114;922552;-75
2022/06/26 00:52:53;;;;;;;4.93;2.02;;;;;;;19.55;69.41;100686.55;463012;114;922654;-74
2022/06/26 00:53:56;;;;;;;2.15;1.57;;;;;;;19.52;69.41;100687.08;462967;114;923008;-75
2022/06/26 00:55:00;;;;;;;2.15;1.43;;;;;;;19.49;69.30;100684.87;463068;114;922590;-74
2022/06/26 00:56:03;;;;;;;1.53;1.42;;;;;;;19.47;69.29;100683.45;463085;114;922513;-76
2022/06/26 00:57:07;;;;;;;2.12;1.94;;;;;;;19.44;69.27;100692.28;463087;114;923284;-75
2022/06/26 00:58:11;;;;;;;2.87;1.83;;;;;;;19.41;69.29;100693.64;462990;114;930398;-73
2022/06/26 00:59:15;;;;;;;1.41;1.29;;;;;;;19.39;69.36;100690.33;463003;114;930419;-74
2022/06/26 01:00:20;;;;;;;3.74;1.76;;;;;;;19.37;69.46;100686.16;462901;114;930325;-74
2022/06/26 01:01:24;;;;;;;2.22;1.77;;;;;;;19.36;69.70;100685.33;462943;114;922928;-75
2022/06/26 01:02:27;;;;;;;3.17;1.63;;;;;;;19.37;69.86;100683.39;463043;114;922527;-76
2022/06/26 01:03:31;;;;;;;2.30;1.41;;;;;;;19.37;69.90;100680.63;463052;114;922859;-75
2022/06/26 01:04:34;;;;;;;3.11;1.78;;;;;;;19.35;69.88;100674.56;463044;114;930264;-75
2022/06/26 01:05:39;;;;;;;6.33;1.89;;;;;;;19.35;69.92;100674.56;463137;114;922607;-75
2022/06/26 01:06:42;;;;;;;2.18;1.85;;;;;;;19.34;69.99;100679.25;462961;114;922492;-75
2022/06/26 01:07:46;;;;;;;1.69;1.47;;;;;;;19.35;70.04;100680.09;463191;114;922626;-73
2022/06/26 01:08:49;;;;;;;1.99;1.57;;;;;;;19.33;70.22;100679.52;463059;114;922718;-75
2022/06/26 01:09:53;;;;;;;3.37;1.44;;;;;;;19.33;70.23;100676.75;462964;112;930253;-74
2022/06/26 01:10:56;;;;;;;2.58;1.64;;;;;;;19.33;70.27;100673.98;463067;114;923103;-75
2022/06/26 01:12:00;;;;;;;2.62;1.97;;;;;;;19.32;70.22;100678.68;453906;117;922781;-75
2022/06/26 01:13:06;;;;;;;2.09;1.61;;;;;;;19.30;70.36;100672.58;454324;114;930398;-74
2022/06/26 01:14:10;;;;;;;1.74;1.62;;;;;;;19.30;70.35;100680.03;462931;114;922641;-74
2022/06/26 01:15:13;;;;;;;2.87;1.61;;;;;;;19.29;70.45;100668.17;463084;114;923005;-76
2022/06/26 01:16:18;;;;;;;2.24;1.46;;;;;;;19.31;70.53;100676.17;463073;114;922596;-75
2022/06/26 01:17:23;;;;;;;3.90;1.90;;;;;;;19.31;70.53;100667.87;457091;115;923028;-76
2022/06/26 01:18:26;;;;;;;2.15;1.73;;;;;;;19.30;70.54;100669.81;462358;112;922590;-75
2022/06/26 01:19:30;;;;;;;3.11;1.90;;;;;;;19.31;70.64;100667.87;471336;112;930302;-75
2022/06/26 01:20:33;;;;;;;3.26;1.86;;;;;;;19.31;70.68;100671.48;471337;112;922969;-74
2022/06/26 01:21:37;;;;;;;2.40;1.85;;;;;;;19.31;70.75;100660.42;471450;112;922531;-75
2022/06/26 01:22:41;;;;;;;2.35;1.95;;;;;;;19.31;70.91;100663.19;471320;112;923440;-75
2022/06/26 01:23:46;;;;;;;1.65;1.48;;;;;;;19.32;70.79;100652.96;471403;112;922671;-74
2022/06/26 01:24:50;;;;;;;3.47;1.80;;;;;;;19.30;70.77;100664.28;461684;114;922714;-75
2022/06/26 01:25:54;;;;;;;4.65;2.05;;;;;;;19.30;70.79;100658.75;462352;112;922607;-74
2022/06/26 01:27:00;;;;;;;3.37;1.91;;;;;;;19.31;70.72;100665.95;471303;112;922981;-75
2022/06/26 01:28:03;;;;;;;2.24;1.49;;;;;;;19.30;70.65;100663.45;471231;112;922663;-75
2022/06/26 01:29:07;;;;;;;1.68;1.57;;;;;;;19.27;70.59;100664.84;471322;112;922538;-75
2022/06/26 01:30:12;;;;;;;3.16;1.61;;;;;;;19.26;70.49;100668.70;463757;112;930362;-74
2022/06/26 01:31:18;;;;;;;3.16;1.67;;;;;;;19.25;70.51;100663.43;457878;116;922599;-75
2022/06/26 01:32:22;;;;;;;2.59;1.59;;;;;;;19.23;70.58;100671.19;457874;116;922645;-74
2022/06/26 01:33:25;;;;;;;2.67;1.61;;;;;;;19.21;70.67;100668.68;458062;116;922734;-76
2022/06/26 01:34:28;;;;;;;2.31;2.09;;;;;;;19.18;70.74;100670.03;463423;114;922984;-74
2022/06/26 01:35:34;;;;;;;3.30;1.66;;;;;;;19.18;70.78;100669.23;463304;114;922492;-74
2022/06/26 01:36:39;;;;;;;2.63;1.90;;;;;;;19.17;70.86;100667.56;463569;113;923141;-75
2022/06/26 01:37:43;;;;;;;2.39;1.74;;;;;;;19.16;70.94;100658.44;457901;116;922631;-75
2022/06/26 01:38:46;;;;;;;3.19;1.90;;;;;;;19.15;70.98;100664.22;458135;114;922646;-75
2022/06/26 01:39:51;;;;;;;2.55;1.72;;;;;;;19.15;71.02;100673.35;463698;114;922791;-75
2022/06/26 01:40:56;;;;;;;2.67;1.72;;;;;;;19.14;71.05;100671.69;463633;114;922484;-73
2022/06/26 01:42:00;;;;;;;2.94;1.79;;;;;;;19.16;71.12;100676.95;463558;114;922583;-75
2022/06/26 01:43:04;;;;;;;3.29;1.58;;;;;;;19.14;71.24;100670.84;463704;113;922531;-75
2022/06/26 01:44:09;;;;;;;2.44;2.20;;;;;;;19.17;71.38;100678.63;463754;113;922529;-76
2022/06/26 01:45:12;;;;;;;2.06;1.75;;;;;;;19.18;71.36;100680.29;463575;114;923097;-77
2022/06/26 01:46:19;;;;;;;2.10;1.44;;;;;;;19.18;71.40;100674.76;457767;115;922590;-77
2022/06/26 01:47:24;;;;;;;1.96;1.58;;;;;;;19.19;71.35;100676.39;458366;114;922557;-76
2022/06/26 01:48:29;;;;;;;2.16;1.79;;;;;;;19.19;71.35;100670.87;463989;114;922537;-73
2022/06/26 01:49:33;;;;;;;2.09;1.77;;;;;;;19.20;71.25;100677.23;464388;114;930078;-75
2022/06/26 01:50:37;;;;;;;4.06;1.82;;;;;;;19.20;71.18;100678.06;464691;114;922302;-75
2022/06/26 01:51:42;;;;;;;2.07;1.61;;;;;;;19.21;71.26;100682.50;458857;115;922981;-75
2022/06/26 01:52:46;;;;;;;4.72;1.89;;;;;;;19.21;71.21;100676.14;459190;114;922421;-75
2022/06/26 01:53:49;;;;;;;2.62;1.80;;;;;;;19.22;71.24;100680.57;464552;114;922313;-76
2022/06/26 01:54:53;;;;;;;2.41;1.67;;;;;;;19.22;71.26;100677.80;463726;114;930286;-73
2022/06/26 01:55:56;;;;;;;2.03;1.82;;;;;;;19.22;71.22;100675.88;463705;114;930290;-75
2022/06/26 01:57:02;;;;;;;3.18;1.99;;;;;;;19.22;71.18;100672.28;462893;114;922570;-75
2022/06/26 01:58:05;;;;;;;3.69;2.19;;;;;;;19.20;71.11;100672.53;463773;114;922729;-75
2022/06/26 01:59:09;;;;;;;2.36;1.66;;;;;;;19.19;71.07;100673.63;463801;114;922549;-75
2022/06/26 02:00:18;;;;;;;2.18;1.47;;;;;;;19.18;70.94;100680.29;457756;115;926413;-74
2022/06/26 02:01:21;;;;;;;2.31;1.41;;;;;;;19.14;70.93;100681.91;458052;116;922872;-75
2022/06/26 02:02:26;;;;;;;2.54;1.85;;;;;;;19.12;70.93;100682.20;457919;116;930963;-77
2022/06/26 02:03:30;;;;;;;3.75;2.12;;;;;;;19.10;70.96;100686.31;450210;118;922662;-74
2022/06/26 02:04:33;;;;;;;2.94;1.72;;;;;;;19.08;71.00;100681.05;450434;118;930298;-75
2022/06/26 02:05:38;;;;;;;3.04;1.66;;;;;;;19.06;71.46;100682.43;450859;116;930322;-75
2022/06/26 02:06:43;;;;;;;3.37;1.94;;;;;;;19.06;71.46;100682.43;458327;114;922517;-75
2022/06/26 02:07:48;;;;;;;2.20;1.68;;;;;;;19.05;71.27;100686.29;458145;116;929997;-75
2022/06/26 02:08:51;;;;;;;1.79;1.59;;;;;;;19.06;71.27;100682.43;458867;116;922483;-76
2022/06/26 02:14:03;;;;;;;2.94;1.52;;;;;;;19.02;71.37;100690.41;458801;114;922327;-76
2022/06/26 02:15:08;;;;;;;3.18;1.55;;;;;;;19.01;71.53;100687.94;457864;116;922429;-76
2022/06/26 02:16:24;;;;;;;3.06;1.74;;;;;;;19.02;71.59;100689.60;450832;118;922505;-75
2022/06/26 02:17:28;;;;;;;1.70;1.60;;;;;;;19.02;71.58;100697.89;452639;116;922451;-76
2022/06/26 02:18:32;;;;;;;2.92;1.72;;;;;;;19.02;71.55;100690.41;458962;116;922547;-75
2022/06/26 02:19:36;;;;;;;2.98;1.44;;;;;;;19.03;71.65;100696.77;458757;116;930077;-76
2022/06/26 02:20:39;;;;;;;3.17;1.81;;;;;;;19.04;71.67;100690.98;458881;116;930012;-75
2022/06/26 02:21:45;;;;;;;2.04;1.57;;;;;;;19.06;71.60;100687.95;458700;116;922474;-77
2022/06/26 02:22:48;;;;;;;1.95;1.49;;;;;;;19.06;71.74;100687.95;458814;116;922230;-76
2022/06/26 02:23:52;;;;;;;3.04;1.82;;;;;;;19.07;71.81;100692.39;458820;116;921908;-77
2022/06/26 02:24:55;;;;;;;1.68;1.57;;;;;;;19.09;71.65;100690.17;458814;116;929996;-74
2022/06/26 02:25:58;;;;;;;1.60;1.41;;;;;;;19.10;71.61;100689.08;459000;116;922246;-75
2022/06/26 02:27:02;;;;;;;3.79;1.64;;;;;;;19.09;71.57;100688.24;458894;116;922686;-76
2022/06/26 02:28:06;;;;;;;3.49;1.86;;;;;;;19.10;71.58;100683.55;446144;119;922779;-76
2022/06/26 02:29:09;;;;;;;1.75;1.62;;;;;;;19.10;71.57;100689.91;446750;116;922520;-77
2022/06/26 02:30:16;;;;;;;2.19;1.68;;;;;;;19.12;71.49;100689.66;450240;116;922388;-76
2022/06/26 02:31:20;;;;;;;2.82;1.98;;;;;;;19.11;71.70;100693.51;439276;119;922403;-76
2022/06/26 02:32:24;;;;;;;1.94;1.54;;;;;;;19.12;71.76;100689.66;446469;117;922644;-74
2022/06/26 02:33:29;;;;;;;2.08;1.61;;;;;;;19.13;71.66;100691.32;454494;117;922621;-78
2022/06/26 02:34:32;;;;;;;3.94;1.57;;;;;;;19.13;71.67;100689.36;458670;116;922890;-75
2022/06/26 02:35:36;;;;;;;2.29;1.47;;;;;;;19.13;71.71;100694.89;458817;116;923061;-73
2022/06/26 02:36:39;;;;;;;3.34;1.72;;;;;;;19.16;71.79;100699.06;458747;116;929973;-77
2022/06/26 02:37:43;;;;;;;2.82;1.89;;;;;;;19.16;71.88;100691.61;450781;118;922599;-75
2022/06/26 02:38:46;;;;;;;2.62;1.78;;;;;;;19.18;71.84;100693.27;451173;116;922422;-75
2022/06/26 02:39:50;;;;;;;2.32;1.70;;;;;;;19.18;71.85;100694.11;458842;116;922524;-76
2022/06/26 02:40:54;;;;;;;2.46;2.23;;;;;;;19.18;71.86;100694.91;458918;116;922437;-76
2022/06/26 02:41:57;;;;;;;2.46;1.83;;;;;;;19.20;71.94;100697.41;450810;118;922293;-76
2022/06/26 02:43:01;;;;;;;2.05;1.75;;;;;;;19.21;71.90;100693.56;443690;118;922955;-75
2022/06/26 02:44:06;;;;;;;3.09;2.21;;;;;;;19.22;71.92;100700.75;443808;118;922934;-75
2022/06/26 02:45:09;;;;;;;1.89;1.64;;;;;;;19.24;71.89;100693.00;451209;116;922656;-77
2022/06/26 02:46:15;;;;;;;1.84;1.49;;;;;;;19.24;71.93;100698.53;458672;116;922267;-77
2022/06/26 02:47:19;;;;;;;3.29;1.93;;;;;;;19.25;72.02;100694.67;450871;118;922453;-75
2022/06/26 02:48:23;;;;;;;5.19;1.76;;;;;;;19.27;72.05;100692.48;450931;116;930167;-74
2022/06/26 02:49:27;;;;;;;2.90;1.60;;;;;;;19.28;72.07;100694.16;458391;116;930187;-76
2022/06/26 02:50:30;;;;;;;2.79;1.94;;;;;;;19.30;72.11;100700.23;458541;116;930277;-75
2022/06/26 02:51:33;;;;;;;1.98;1.63;;;;;;;19.31;72.13;100692.77;458690;116;922544;-75
2022/06/26 02:52:37;;;;;;;1.94;1.78;;;;;;;19.31;72.30;100688.07;450329;118;922680;-76
2022/06/26 02:53:41;;;;;;;2.34;1.76;;;;;;;19.34;72.30;100683.95;451076;116;922448;-75
2022/06/26 02:54:44;;;;;;;2.14;1.84;;;;;;;19.35;72.29;100691.95;458745;116;922858;-75
2022/06/26 02:55:47;;;;;;;2.27;1.99;;;;;;;19.36;72.22;100692.78;461125;114;922869;-76
2022/06/26 02:56:51;;;;;;;1.91;1.66;;;;;;;19.37;72.20;100692.52;466437;114;922818;-75
2022/06/26 02:57:55;;;;;;;2.38;1.90;;;;;;;19.39;72.12;100695.02;466348;114;922575;-77
2022/06/26 02:58:59;;;;;;;2.89;2.02;;;;;;;19.38;72.11;100691.42;457863;116;923196;-75
2022/06/26 03:00:05;;;;;;;4.17;2.17;;;;;;;19.39;72.07;100692.27;458417;114;922877;-76
2022/06/26 03:01:09;;;;;;;3.66;2.48;;;;;;;19.40;72.12;100697.53;466097;114;930368;-75
2022/06/26 03:02:13;;;;;;;2.47;1.69;;;;;;;19.42;72.13;100705.53;464721;114;922738;-75
2022/06/26 03:03:18;;;;;;;2.04;1.89;;;;;;;19.44;72.12;100700.58;457580;116;922930;-75
2022/06/26 03:04:22;;;;;;;3.36;1.66;;;;;;;19.45;72.19;100700.34;458130;116;922523;-75
2022/06/26 03:05:25;;;;;;;3.83;1.79;;;;;;;19.47;72.26;100698.13;458114;116;922554;-75
2022/06/26 03:06:29;;;;;;;2.06;1.86;;;;;;;19.49;72.30;100706.99;458044;116;930423;-75
2022/06/26 03:07:33;;;;;;;2.82;1.66;;;;;;;19.51;72.29;100710.33;458132;116;922469;-76
2022/06/26 03:08:37;;;;;;;2.76;1.74;;;;;;;19.52;72.33;100703.67;458153;116;922821;-74
2022/06/26 03:09:40;;;;;;;3.18;1.92;;;;;;;19.54;72.42;100698.71;458147;114;922807;-75
2022/06/26 03:10:44;;;;;;;2.21;2.06;;;;;;;19.55;72.34;100699.55;458089;116;923043;-74
2022/06/26 03:11:47;;;;;;;3.46;2.06;;;;;;;19.56;72.32;100698.45;458129;116;930459;-75
2022/06/26 03:12:51;;;;;;;2.24;1.84;;;;;;;19.57;72.27;100692.62;458176;116;923067;-76
2022/06/26 03:13:54;;;;;;;2.05;1.85;;;;;;;19.59;72.31;100700.66;458088;116;922600;-73
2022/06/26 03:14:58;;;;;;;2.84;2.03;;;;;;;19.60;72.17;100701.49;458132;116;923151;-74
2022/06/26 03:16:01;;;;;;;2.80;1.66;;;;;;;19.60;72.10;100691.27;458189;116;922732;-75
2022/06/26 03:17:04;;;;;;;2.43;2.09;;;;;;;19.61;72.03;100692.93;458124;116;922463;-75
2022/06/26 03:18:10;;;;;;;1.93;1.78;;;;;;;19.62;71.98;100688.23;449912;118;930420;-76
2022/06/26 03:19:13;;;;;;;4.21;2.18;;;;;;;19.64;72.04;100692.38;450344;116;923157;-76
2022/06/26 03:20:19;;;;;;;5.49;2.64;;;;;;;19.65;72.05;100688.51;458055;116;922535;-77
2022/06/26 03:21:22;;;;;;;2.67;1.87;;;;;;;19.67;71.94;100694.61;457991;116;922553;-74
2022/06/26 03:22:26;;;;;;;3.59;2.19;;;;;;;19.70;71.92;100684.92;458048;116;922528;-74
2022/06/26 03:24:51;;;;;;;6.81;2.17;;;;;;;19.73;71.76;100685.23;457934;116;922539;-76
2022/06/26 03:25:54;;;;;;;3.46;1.91;;;;;;;19.75;71.80;100687.70;458058;116;922413;-75
2022/06/26 03:26:59;;;;;;;2.15;2.02;;;;;;;19.78;71.79;100681.64;458007;116;930334;-75
2022/06/26 03:28:03;;;;;;;1.89;1.79;;;;;;;19.81;71.64;100689.38;458071;116;922530;-74
2022/06/26 03:29:10;;;;;;;3.20;2.27;;;;;;;19.81;71.64;100689.38;449856;118;930349;-76
2022/06/26 03:30:15;;;;;;;3.21;2.09;;;;;;;19.81;71.62;100675.54;457711;114;922672;-75
2022/06/26 03:31:20;;;;;;;2.46;2.25;;;;;;;19.83;71.52;100685.25;465749;114;922515;-76
2022/06/26 03:32:25;;;;;;;2.38;2.12;;;;;;;19.86;71.42;100689.38;465562;114;923296;-75
2022/06/26 03:33:33;;;;;;;2.22;1.89;;;;;;;19.86;71.36;100687.45;458939;112;922564;-74
2022/06/26 03:34:36;;;;;;;3.42;2.76;;;;;;;19.87;71.26;100683.58;471442;112;922590;-75
2022/06/26 03:35:39;;;;;;;2.50;1.80;;;;;;;19.88;71.23;100678.88;471335;112;922650;-74
2022/06/26 03:36:43;;;;;;;2.45;2.10;;;;;;;19.90;71.35;100684.98;471406;112;923097;-75
2022/06/26 03:37:46;;;;;;;4.62;2.28;;;;;;;19.90;71.24;100682.22;471344;112;930295;-75
2022/06/26 03:38:51;;;;;;;4.33;2.06;;;;;;;19.92;71.24;100680.83;471283;112;922725;-74
2022/06/26 03:39:54;;;;;;;2.26;1.95;;;;;;;19.95;71.21;100690.53;471289;112;923330;-75
2022/06/26 03:40:58;;;;;;;1.96;1.86;;;;;;;19.95;71.02;100679.46;471402;112;922890;-76
2022/06/26 03:42:02;;;;;;;3.25;1.82;;;;;;;19.96;70.92;100687.47;471400;112;922931;-73
2022/06/26 03:43:11;;;;;;;2.52;1.74;;;;;;;19.98;70.88;100689.97;470894;112;922884;-74
2022/06/26 03:44:22;;;;;;;2.23;2.02;;;;;;;20.00;70.83;100687.77;471199;112;922887;-74
2022/06/26 03:45:26;;;;;;;3.09;1.94;;;;;;;20.02;70.68;100693.84;471356;112;922556;-75
2022/06/26 03:46:30;;;;;;;2.51;1.86;;;;;;;20.04;70.62;100693.58;471411;112;922629;-75
2022/06/26 03:47:33;;;;;;;2.13;1.94;;;;;;;20.05;70.52;100692.47;471467;112;922543;-74
2022/06/26 03:48:38;;;;;;;2.28;2.03;;;;;;;20.07;70.36;100690.28;471273;112;922452;-75
2022/06/26 03:49:42;;;;;;;1.96;1.79;;;;;;;20.08;70.24;100689.98;471373;112;922840;-75
2022/06/26 03:50:45;;;;;;;2.48;2.28;;;;;;;20.09;70.12;100691.64;471428;112;922642;-75
2022/06/26 03:51:49;;;;;;;2.41;2.21;;;;;;;20.11;70.04;100691.37;470170;112;922522;-75
2022/06/26 03:52:53;;;;;;;7.46;2.15;;;;;;;20.12;70.00;100691.11;462985;114;930280;-74
2022/06/26 03:53:56;;;;;;;3.64;2.13;;;;;;;20.13;69.87;100689.98;463009;114;922920;-75
2022/06/26 03:54:59;;;;;;;3.24;2.17;;;;;;;20.15;69.85;100692.48;463180;114;923097;-75
2022/06/26 03:56:04;;;;;;;3.08;1.69;;;;;;;20.15;69.86;100693.31;463098;114;922542;-76
2022/06/26 03:57:07;;;;;;;3.81;1.96;;;;;;;20.16;69.83;100694.98;463128;114;922497;-75
2022/06/26 03:58:11;;;;;;;2.90;2.46;;;;;;;20.18;69.82;100692.75;463097;114;922478;-74
2022/06/26 03:59:14;;;;;;;3.05;1.86;;;;;;;20.20;69.79;100698.86;463018;114;930713;-75
2022/06/26 04:00:19;;;;;;;2.59;2.08;;;;;;;20.20;69.78;100695.25;462976;114;922679;-75
2022/06/26 04:01:24;;;;;;;6.41;2.41;;;;;;;20.21;69.71;100694.98;462948;114;923037;-75
2022/06/26 04:02:28;;;;;;;3.10;2.11;;;;;;;20.23;69.79;100694.72;463089;114;922533;-74
2022/06/26 04:03:32;;;;;;;2.94;2.04;;;;;;;20.23;69.72;100694.72;463075;114;922473;-76
2022/06/26 04:04:36;;;;;;;3.27;2.46;;;;;;;20.24;69.73;100690.81;463031;114;930276;-75
2022/06/26 04:05:39;;;;;;;5.89;2.06;;;;;;;20.25;69.75;100695.25;463080;114;922849;-74
2022/06/26 04:06:43;;;;;;;5.42;2.19;;;;;;;20.27;69.75;100695.82;463085;114;922675;-74
2022/06/26 04:07:48;;;;;;;2.38;2.07;;;;;;;20.27;69.52;100696.66;461890;114;922576;-75
2022/06/26 04:08:53;;;;;;;2.66;2.23;;;;;;;20.29;69.46;100697.19;462478;114;922968;-75
2022/06/26 04:09:56;;;;;;;3.13;2.02;;;;;;;20.31;69.45;100691.38;463157;114;922536;-76
2022/06/26 04:11:00;;;;;;;2.74;2.17;;;;;;;20.33;69.34;100691.98;463171;114;923035;-75
2022/06/26 04:12:05;;;;;;;2.58;2.32;;;;;;;20.35;69.30;100695.28;462792;114;922749;-74
2022/06/26 04:13:11;;;;;;;2.76;2.04;;;;;;;20.37;69.23;100695.85;462888;114;923122;-75
2022/06/26 04:14:16;;;;;;;2.52;2.18;;;;;;;20.38;69.17;100698.35;462979;114;922743;-76
2022/06/26 04:15:20;;;;;;;2.49;1.74;;;;;;;20.40;69.17;100692.52;463136;114;922683;-75
2022/06/26 04:16:25;;;;;;;2.74;2.27;;;;;;;20.43;69.13;100693.91;462956;114;930341;-75
2022/06/26 04:17:30;;;;;;;2.34;2.08;;;;;;;20.45;69.12;100700.02;463048;114;922552;-76
2022/06/26 04:18:38;;;;;;;2.76;1.96;;;;;;;20.48;69.04;100702.22;461217;114;930229;-76
2022/06/26 04:19:43;;;;;;;2.11;1.86;;;;;;;20.48;69.03;100699.45;462929;114;923653;-74
2022/06/26 04:20:47;;;;;;;3.51;2.47;;;;;;;20.51;68.93;100704.45;463109;114;922422;-75
2022/06/26 04:21:51;;;;;;;3.18;2.52;;;;;;;20.52;68.83;100703.31;463175;114;922487;-76
2022/06/26 04:22:56;;;;;;;4.06;2.10;;;;;;;20.53;68.85;100702.22;463163;114;923298;-75
2022/06/26 04:23:59;;;;;;;3.14;1.95;;;;;;;20.56;68.80;100707.22;462937;114;922580;-74
2022/06/26 04:25:04;;;;;;;4.20;2.61;;;;;;;20.57;68.75;100709.69;463068;112;922597;-75
2022/06/26 04:26:08;;;;;;;2.74;2.50;;;;;;;20.59;68.71;100706.65;462989;114;922590;-75
2022/06/26 04:27:11;;;;;;;2.37;1.93;;;;;;;20.61;68.74;100713.59;463084;114;922533;-75
2022/06/26 04:28:14;;;;;;;3.26;2.33;;;;;;;20.64;68.65;100709.41;463100;114;922929;-74
2022/06/26 04:29:20;;;;;;;2.38;2.21;;;;;;;20.65;68.53;100709.14;462785;114;922643;-75
2022/06/26 04:30:24;;;;;;;4.25;2.15;;;;;;;20.67;68.54;100712.48;463634;114;923076;-75
2022/06/26 04:31:28;;;;;;;2.85;2.56;;;;;;;20.69;68.46;100710.23;463041;114;923432;-75
2022/06/26 04:32:31;;;;;;;3.51;2.56;;;;;;;20.71;68.42;100710.80;463087;114;922639;-75
2022/06/26 04:33:37;;;;;;;2.89;2.08;;;;;;;20.75;68.41;100708.30;462852;114;927171;-75
2022/06/26 04:34:43;;;;;;;3.28;2.52;;;;;;;20.78;68.37;100716.06;462947;114;922594;-75
2022/06/26 04:35:46;;;;;;;2.69;2.29;;;;;;;20.80;68.29;100716.59;463064;114;923431;-74
2022/06/26 04:36:50;;;;;;;2.37;2.16;;;;;;;20.84;68.26;100719.66;463077;114;923055;-74
2022/06/26 04:37:55;;;;;;;4.42;2.31;;;;;;;20.87;68.22;100722.69;462867;114;930428;-76
2022/06/26 04:38:59;;;;;;;3.21;2.54;;;;;;;20.89;68.17;100723.26;463157;114;922501;-75
2022/06/26 04:40:05;;;;;;;3.39;2.58;;;;;;;20.92;68.27;100728.23;463045;114;922514;-76
2022/06/26 04:42:30;;;;;;;2.63;2.36;;;;;;;20.99;68.18;100728.78;462967;114;922634;-75
2022/06/26 04:43:33;;;;;;;4.12;2.57;;;;;;;21.04;68.11;100733.48;463131;114;923042;-75
2022/06/26 04:44:37;;;;;;;2.91;2.21;;;;;;;21.05;67.98;100722.12;463137;114;923184;-76
2022/06/26 04:45:41;;;;;;;2.94;2.21;;;;;;;21.08;67.86;100726.25;463128;114;922564;-75
2022/06/26 04:46:46;;;;;;;3.51;2.43;;;;;;;21.10;67.78;100726.81;463146;114;922645;-75
2022/06/26 04:47:50;;;;;;;2.96;2.52;;;;;;;21.12;67.74;100727.34;463032;114;922589;-75
2022/06/26 04:48:53;;;;;;;2.77;2.33;;;;;;;21.14;67.69;100727.91;457657;115;922713;-76
2022/06/26 04:49:57;;;;;;;2.44;2.09;;;;;;;21.16;67.58;100732.10;462459;112;922914;-74
2022/06/26 04:51:00;;;;;;;4.16;2.25;;;;;;;21.18;67.47;100724.31;471290;112;930282;-75
2022/06/26 04:52:04;;;;;;;3.13;2.56;;;;;;;21.19;67.40;100716.83;471374;112;922566;-76
2022/06/26 04:53:09;;;;;;;3.12;2.60;;;;;;;21.20;67.31;100724.87;470579;112;930475;-76
2022/06/26 04:54:13;;;;;;;3.78;2.78;;;;;;;21.21;67.29;100726.54;471328;112;922495;-77
2022/06/26 04:55:18;;;;;;;3.21;2.42;;;;;;;21.22;67.32;100719.05;464666;112;930279;-75
2022/06/26 04:56:25;;;;;;;2.97;2.68;;;;;;;21.23;67.33;100724.30;462651;114;922642;-76
2022/06/26 04:57:30;;;;;;;4.53;2.43;;;;;;;21.26;67.30;100724.86;462617;114;922603;-77
2022/06/26 04:58:34;;;;;;;4.29;2.82;;;;;;;21.28;67.16;100722.64;463083;114;922561;-77
2022/06/26 04:59:38;;;;;;;3.83;2.39;;;;;;;21.30;66.96;100721.23;463084;114;922687;-76
2022/06/26 05:00:42;;;;;;;4.49;2.49;;;;;;;21.30;66.96;100721.23;463063;114;922624;-76
2022/06/26 05:01:47;;;;;;;3.24;2.62;;;;;;;21.32;66.99;100719.02;461991;114;922609;-75